createdAt,value
2018-05-07T00:00:26.345Z,63.57
2018-05-07T00:01:26.331Z,63.76
2018-05-07T00:02:26.319Z,63.48
2018-05-07T00:03:26.298Z,63.29
2018-05-07T00:04:26.312Z,63.39
2018-05-07T00:05:26.276Z,63.86
2018-05-07T00:06:26.256Z,63.86
2018-05-07T00:07:26.221Z,64.05
2018-05-07T00:08:26.216Z,63.96
2018-05-07T00:09:26.191Z,64.05
2018-05-07T00:10:26.175Z,64.15
2018-05-07T00:11:26.173Z,64.43
2018-05-07T00:12:26.136Z,63.86
2018-05-07T00:13:26.120Z,64.34
2018-05-07T00:14:26.173Z,64.43
2018-05-07T00:15:26.091Z,64.05
2018-05-07T00:16:26.079Z,64.05
2018-05-07T00:17:26.059Z,64.34
2018-05-07T00:18:26.041Z,63.76
2018-05-07T00:19:26.025Z,63.39
2018-05-07T00:20:26.010Z,63.39
2018-05-07T00:21:26.026Z,63.96
2018-05-07T00:22:26.032Z,63.76
2018-05-07T00:23:25.957Z,63.48
2018-05-07T00:24:25.941Z,64.53
2018-05-07T00:25:25.984Z,64.25
2018-05-07T00:26:25.905Z,64.05
2018-05-07T00:27:25.889Z,64.43
2018-05-07T00:28:25.868Z,63.96
2018-05-07T00:29:25.866Z,63.57
2018-05-07T00:30:25.837Z,64.53
2018-05-07T00:31:25.819Z,64.53
2018-05-07T00:32:25.807Z,64.43
2018-05-07T00:33:25.803Z,64.34
2018-05-07T00:34:25.795Z,64.15
2018-05-07T00:35:25.768Z,64.15
2018-05-07T00:36:25.753Z,64.25
2018-05-07T00:37:25.720Z,64.15
2018-05-07T00:38:25.719Z,64.40
2018-05-07T00:39:25.696Z,64.05
2018-05-07T00:40:25.692Z,64.43
2018-05-07T00:41:25.661Z,64.25
2018-05-07T00:42:25.634Z,64.25
2018-05-07T00:43:25.635Z,64.40
2018-05-07T00:44:25.596Z,64.50
2018-05-07T00:45:25.581Z,64.88
2018-05-07T00:46:25.569Z,65.17
2018-05-07T00:47:25.564Z,65.08
2018-05-07T00:48:25.551Z,64.79
2018-05-07T00:49:25.545Z,64.59
2018-05-07T00:50:25.588Z,65.65
2018-05-07T00:51:25.498Z,65.84
2018-05-07T00:52:25.483Z,65.65
2018-05-07T00:53:25.455Z,65.65
2018-05-07T00:54:25.446Z,66.03
2018-05-07T00:55:25.414Z,66.32
2018-05-07T00:56:25.417Z,66.13
2018-05-07T00:57:25.385Z,66.32
2018-05-07T00:58:25.361Z,66.41
2018-05-07T00:59:25.361Z,66.41
2018-05-07T01:00:25.350Z,66.51
2018-05-07T01:01:25.338Z,66.13
2018-05-07T01:02:25.411Z,67.27
2018-05-07T01:03:25.301Z,67.24
2018-05-07T01:04:25.277Z,66.76
2018-05-07T01:05:25.361Z,67.34
2018-05-07T01:06:25.261Z,67.34
2018-05-07T01:07:25.216Z,67.82
2018-05-07T01:08:25.211Z,67.91
2018-05-07T01:09:25.334Z,68.58
2018-05-07T01:10:25.183Z,68.29
2018-05-07T01:11:25.164Z,68.39
2018-05-07T01:12:25.147Z,68.39
2018-05-07T01:13:25.129Z,69.15
2018-05-07T01:14:25.086Z,69.41
2018-05-07T01:15:25.085Z,69.54
2018-05-07T01:16:25.074Z,69.98
2018-05-07T01:17:25.101Z,69.60
2018-05-07T01:18:25.045Z,70.17
2018-05-07T01:19:25.008Z,69.89
2018-05-07T01:20:24.987Z,70.46
2018-05-07T01:21:24.985Z,70.07
2018-05-07T01:22:24.945Z,70.56
2018-05-07T01:23:24.939Z,70.75
2018-05-07T01:24:24.922Z,70.75
2018-05-07T01:25:24.904Z,70.75
2018-05-07T01:26:24.892Z,71.42
2018-05-07T01:27:24.866Z,70.46
2018-05-07T01:28:24.871Z,70.84
2018-05-07T01:29:24.986Z,70.56
2018-05-07T01:30:24.848Z,70.56
2018-05-07T01:31:24.841Z,70.75
2018-05-07T01:32:24.775Z,70.36
2018-05-07T01:33:24.941Z,70.46
2018-05-07T01:34:24.762Z,71.03
2018-05-07T01:35:24.730Z,70.46
2018-05-07T01:36:24.716Z,70.75
2018-05-07T01:37:24.692Z,71.13
2018-05-07T01:38:24.691Z,71.32
2018-05-07T01:39:24.666Z,71.13
2018-05-07T01:40:24.635Z,71.51
2018-05-07T01:41:24.684Z,71.89
2018-05-07T01:42:24.786Z,71.22
2018-05-07T01:43:24.613Z,71.32
2018-05-07T01:44:24.582Z,71.80
2018-05-07T01:45:24.569Z,72.56
2018-05-07T01:46:24.534Z,72.47
2018-05-07T01:47:24.552Z,71.99
2018-05-07T01:48:24.508Z,71.89
2018-05-07T01:49:24.501Z,72.37
2018-05-07T01:50:24.511Z,72.18
2018-05-07T01:51:24.446Z,72.08
2018-05-07T01:52:24.448Z,71.89
2018-05-07T01:53:24.437Z,72.37
2018-05-07T01:54:24.411Z,72.18
2018-05-07T01:55:24.372Z,72.08
2018-05-07T01:56:24.352Z,72.47
2018-05-07T01:57:24.338Z,72.37
2018-05-07T01:58:24.326Z,72.24
2018-05-07T01:59:24.323Z,72.37
2018-05-07T02:00:24.313Z,72.24
2018-05-07T02:01:24.271Z,72.28
2018-05-07T02:02:24.272Z,72.28
2018-05-07T02:03:24.250Z,72.33
2018-05-07T02:04:24.216Z,72.53
2018-05-07T02:05:24.227Z,72.05
2018-05-07T02:06:24.190Z,72.43
2018-05-07T02:07:24.214Z,73.00
2018-05-07T02:08:24.212Z,72.91
2018-05-07T02:09:24.148Z,73.10
2018-05-07T02:10:24.115Z,72.91
2018-05-07T02:11:24.090Z,73.29
2018-05-07T02:12:24.089Z,73.19
2018-05-07T02:13:24.109Z,72.81
2018-05-07T02:14:24.062Z,73.58
2018-05-07T02:15:24.039Z,73.48
2018-05-07T02:16:24.020Z,73.39
2018-05-07T02:17:24.006Z,73.19
2018-05-07T02:18:24.017Z,73.77
2018-05-07T02:19:23.975Z,73.67
2018-05-07T02:20:24.025Z,73.29
2018-05-07T02:21:23.915Z,73.86
2018-05-07T02:22:23.903Z,73.67
2018-05-07T02:23:23.897Z,74.15
2018-05-07T02:24:23.866Z,74.34
2018-05-07T02:25:23.879Z,74.15
2018-05-07T02:26:23.824Z,74.63
2018-05-07T02:27:23.809Z,74.34
2018-05-07T02:28:23.807Z,74.63
2018-05-07T02:29:23.795Z,75.10
2018-05-07T02:30:23.763Z,75.20
2018-05-07T02:31:23.786Z,75.20
2018-05-07T02:32:23.714Z,75.39
2018-05-07T02:33:23.705Z,75.49
2018-05-07T02:34:23.736Z,75.35
2018-05-07T02:35:23.666Z,75.26
2018-05-07T02:36:23.650Z,75.35
2018-05-07T02:37:23.625Z,75.45
2018-05-07T02:38:23.620Z,75.64
2018-05-07T02:39:23.600Z,75.64
2018-05-07T02:40:23.583Z,75.93
2018-05-07T02:41:23.568Z,75.93
2018-05-07T02:42:23.570Z,76.03
2018-05-07T02:43:23.530Z,76.40
2018-05-07T02:44:23.509Z,75.93
2018-05-07T02:45:23.489Z,76.31
2018-05-07T02:46:23.485Z,76.12
2018-05-07T02:47:23.460Z,76.40
2018-05-07T02:48:23.436Z,76.40
2018-05-07T02:49:23.414Z,76.60
2018-05-07T02:50:23.401Z,76.60
2018-05-07T02:51:23.392Z,76.88
2018-05-07T02:52:23.392Z,76.98
2018-05-07T02:53:23.344Z,76.79
2018-05-07T02:54:23.326Z,76.69
2018-05-07T02:55:23.394Z,76.40
2018-05-07T02:56:23.357Z,77.26
2018-05-07T02:57:23.327Z,77.08
2018-05-07T02:58:23.305Z,76.98
2018-05-07T02:59:23.266Z,77.17
2018-05-07T03:00:23.272Z,76.50
2018-05-07T03:01:23.206Z,77.17
2018-05-07T03:02:23.185Z,77.08
2018-05-07T03:03:25.172Z,77.36
2018-05-07T03:04:23.140Z,77.45
2018-05-07T03:05:23.144Z,77.55
2018-05-07T03:06:23.141Z,77.08
2018-05-07T03:07:23.118Z,77.36
2018-05-07T03:08:23.079Z,77.74
2018-05-07T03:09:23.114Z,77.45
2018-05-07T03:10:23.073Z,77.17
2018-05-07T03:11:23.045Z,77.55
2018-05-07T03:12:23.056Z,77.84
2018-05-07T03:13:22.981Z,77.74
2018-05-07T03:14:22.981Z,77.84
2018-05-07T03:15:22.972Z,77.13
2018-05-07T03:16:22.920Z,77.74
2018-05-07T03:17:22.906Z,77.51
2018-05-07T03:18:22.881Z,77.70
2018-05-07T03:19:22.884Z,77.61
2018-05-07T03:20:22.850Z,77.80
2018-05-07T03:21:22.831Z,77.70
2018-05-07T03:22:22.811Z,77.80
2018-05-07T03:23:22.808Z,77.99
2018-05-07T03:24:22.827Z,77.80
2018-05-07T03:25:22.763Z,77.51
2018-05-07T03:26:22.738Z,77.70
2018-05-07T03:27:22.777Z,77.51
2018-05-07T03:28:22.743Z,78.09
2018-05-07T03:29:22.698Z,77.89
2018-05-07T03:30:22.665Z,78.28
2018-05-07T03:31:22.707Z,78.37
2018-05-07T03:32:22.639Z,78.37
2018-05-07T03:33:22.617Z,78.37
2018-05-07T03:34:22.593Z,78.56
2018-05-07T03:35:22.606Z,78.28
2018-05-07T03:36:22.586Z,78.28
2018-05-07T03:37:22.553Z,78.56
2018-05-07T03:38:22.522Z,77.70
2018-05-07T03:39:22.522Z,77.89
2018-05-07T03:40:22.574Z,78.18
2018-05-07T03:41:22.526Z,77.99
2018-05-07T03:42:22.456Z,78.85
2018-05-07T03:43:22.435Z,78.66
2018-05-07T03:44:22.433Z,78.18
2018-05-07T03:45:22.396Z,78.56
2018-05-07T03:46:22.374Z,78.18
2018-05-07T03:47:22.393Z,78.18
2018-05-07T03:48:22.341Z,78.37
2018-05-07T03:49:22.322Z,78.66
2018-05-07T03:50:22.323Z,78.37
2018-05-07T03:51:22.281Z,78.28
2018-05-07T03:52:22.267Z,78.28
2018-05-07T03:53:22.304Z,78.37
2018-05-07T03:54:22.245Z,78.66
2018-05-07T03:55:22.243Z,78.66
2018-05-07T03:56:22.213Z,78.28
2018-05-07T03:57:22.184Z,77.89
2018-05-07T03:58:22.177Z,78.66
2018-05-07T03:59:22.177Z,78.75
2018-05-07T04:00:22.118Z,78.56
2018-05-07T04:01:22.103Z,78.56
2018-05-07T04:02:22.143Z,78.56
2018-05-07T04:03:22.096Z,79.14
2018-05-07T04:04:22.065Z,78.85
2018-05-07T04:05:22.029Z,78.94
2018-05-07T04:06:22.026Z,79.43
2018-05-07T04:07:22.065Z,79.52
2018-05-07T04:08:21.976Z,79.43
2018-05-07T04:09:21.947Z,79.43
2018-05-07T04:10:21.959Z,80.09
2018-05-07T04:11:21.921Z,79.71
2018-05-07T04:12:21.897Z,79.80
2018-05-07T04:13:21.910Z,79.71
2018-05-07T04:14:21.857Z,79.90
2018-05-07T04:15:21.839Z,79.61
2018-05-07T04:16:21.837Z,79.52
2018-05-07T04:17:21.802Z,79.71
2018-05-07T04:18:21.789Z,80.19
2018-05-07T04:19:21.764Z,80.28
2018-05-07T04:20:21.774Z,80.19
2018-05-07T04:21:21.729Z,79.99
2018-05-07T04:22:21.712Z,80.28
2018-05-07T04:23:21.711Z,80.15
2018-05-07T04:24:21.719Z,80.19
2018-05-07T04:25:21.651Z,80.38
2018-05-07T04:26:21.631Z,80.38
2018-05-07T04:27:21.627Z,79.71
2018-05-07T04:28:21.618Z,80.66
2018-05-07T04:29:21.594Z,80.05
2018-05-07T04:30:21.562Z,79.99
2018-05-07T04:31:21.550Z,80.47
2018-05-07T04:32:21.589Z,80.38
2018-05-07T04:33:21.520Z,80.28
2018-05-07T04:34:21.491Z,80.33
2018-05-07T04:35:21.472Z,80.72
2018-05-07T04:36:21.466Z,80.66
2018-05-07T04:37:21.436Z,80.57
2018-05-07T04:38:21.414Z,81.81
2018-05-07T04:39:21.404Z,82.38
2018-05-07T04:40:21.392Z,81.90
2018-05-07T04:41:21.356Z,82.00
2018-05-07T04:42:21.338Z,80.57
2018-05-07T04:43:21.357Z,80.47
2018-05-07T04:44:21.307Z,80.38
2018-05-07T04:45:21.295Z,80.09
2018-05-07T04:46:21.267Z,79.80
2018-05-07T04:47:21.243Z,80.19
2018-05-07T04:48:21.237Z,80.19
2018-05-07T04:49:21.208Z,79.99
2018-05-07T04:50:21.193Z,80.57
2018-05-07T04:51:21.172Z,80.28
2018-05-07T04:52:21.155Z,80.38
2018-05-07T04:53:21.160Z,80.19
2018-05-07T04:54:21.135Z,80.19
2018-05-07T04:55:21.108Z,79.99
2018-05-07T04:56:21.086Z,80.38
2018-05-07T04:57:21.063Z,80.66
2018-05-07T04:58:21.043Z,80.09
2018-05-07T04:59:21.026Z,80.28
2018-05-07T05:00:21.022Z,80.19
2018-05-07T05:01:21.000Z,80.66
2018-05-07T05:02:20.966Z,79.90
2018-05-07T05:03:20.951Z,79.71
2018-05-07T05:04:20.942Z,79.90
2018-05-07T05:05:20.929Z,80.57
2018-05-07T05:06:20.897Z,79.65
2018-05-07T05:07:20.876Z,79.94
2018-05-07T05:08:20.862Z,79.56
2018-05-07T05:09:20.847Z,79.46
2018-05-07T05:10:20.829Z,80.04
2018-05-07T05:11:20.805Z,79.56
2018-05-07T05:12:20.790Z,79.65
2018-05-07T05:13:20.768Z,79.36
2018-05-07T05:14:20.744Z,79.36
2018-05-07T05:15:20.734Z,79.46
2018-05-07T05:16:20.720Z,79.17
2018-05-07T05:17:20.706Z,79.08
2018-05-07T05:18:20.696Z,78.41
2018-05-07T05:19:20.739Z,78.60
2018-05-07T05:20:20.670Z,78.51
2018-05-07T05:21:20.662Z,78.60
2018-05-07T05:22:20.599Z,78.60
2018-05-07T05:23:20.598Z,78.41
2018-05-07T05:24:20.571Z,78.60
2018-05-07T05:25:20.553Z,78.41
2018-05-07T05:26:20.722Z,78.51
2018-05-07T05:27:20.559Z,78.03
2018-05-07T05:28:20.493Z,78.36
2018-05-07T05:29:20.483Z,77.65
2018-05-07T05:30:21.022Z,77.97
2018-05-07T05:31:20.464Z,78.16
2018-05-07T05:32:20.428Z,77.69
2018-05-07T05:33:20.398Z,77.11
2018-05-07T05:34:20.387Z,77.11
2018-05-07T05:35:20.364Z,76.73
2018-05-07T05:36:20.349Z,76.64
2018-05-07T05:37:20.364Z,76.45
2018-05-07T05:38:20.312Z,75.87
2018-05-07T05:39:20.294Z,76.29
2018-05-07T05:40:20.286Z,75.91
2018-05-07T05:41:20.268Z,76.29
2018-05-07T05:42:20.246Z,76.20
2018-05-07T05:43:20.222Z,75.71
2018-05-07T05:44:20.209Z,75.62
2018-05-07T05:45:20.188Z,74.70
2018-05-07T05:46:20.178Z,75.18
2018-05-07T05:47:20.152Z,74.32
2018-05-07T05:48:20.138Z,73.27
2018-05-07T05:49:20.140Z,73.17
2018-05-07T05:50:20.172Z,73.30
2018-05-07T05:51:20.094Z,73.21
2018-05-07T05:52:20.078Z,72.34
2018-05-07T05:53:20.056Z,71.87
2018-05-07T05:54:20.042Z,71.33
2018-05-07T05:55:20.047Z,71.33
2018-05-07T05:56:20.103Z,70.85
2018-05-07T05:57:20.000Z,70.66
2018-05-07T05:58:19.994Z,70.37
2018-05-07T05:59:19.980Z,70.21
2018-05-07T06:00:19.962Z,69.64
2018-05-07T06:01:19.942Z,69.26
2018-05-07T06:02:19.933Z,68.30
2018-05-07T06:03:19.919Z,67.91
2018-05-07T06:04:19.949Z,68.78
2018-05-07T06:05:19.884Z,68.30
2018-05-07T06:06:19.871Z,68.40
2018-05-07T06:07:19.861Z,69.29
2018-05-07T06:08:19.838Z,68.52
2018-05-07T06:09:19.831Z,67.76
2018-05-07T06:10:19.816Z,66.99
2018-05-07T06:11:19.806Z,67.85
2018-05-07T06:12:19.788Z,67.09
2018-05-07T06:13:19.779Z,66.45
2018-05-07T06:14:19.769Z,67.02
2018-05-07T06:15:19.758Z,65.97
2018-05-07T06:16:19.742Z,66.45
2018-05-07T06:17:19.729Z,67.02
2018-05-07T06:18:19.735Z,66.93
2018-05-07T06:19:19.719Z,65.20
2018-05-07T06:20:19.705Z,64.92
2018-05-07T06:21:19.766Z,64.63
2018-05-07T06:22:19.680Z,64.25
2018-05-07T06:23:19.675Z,64.53
2018-05-07T06:24:19.653Z,64.28
2018-05-07T06:25:19.646Z,64.09
2018-05-07T06:26:19.658Z,64.56
2018-05-07T06:27:19.672Z,64.37
2018-05-07T06:28:19.629Z,64.56
2018-05-07T06:29:19.618Z,64.28
2018-05-07T06:30:19.601Z,64.02
2018-05-07T06:31:19.589Z,63.54
2018-05-07T06:32:19.586Z,62.39
2018-05-07T06:33:19.577Z,62.58
2018-05-07T06:34:19.601Z,62.77
2018-05-07T06:35:19.565Z,62.29
2018-05-07T06:36:19.538Z,62.29
2018-05-07T06:37:19.539Z,63.06
2018-05-07T06:38:19.536Z,62.48
2018-05-07T06:39:19.533Z,63.19
2018-05-07T06:40:19.512Z,62.39
2018-05-07T06:41:19.521Z,62.01
2018-05-07T06:42:19.503Z,62.42
2018-05-07T06:43:19.508Z,62.32
2018-05-07T06:44:19.469Z,62.71
2018-05-07T06:45:19.487Z,61.27
2018-05-07T06:46:19.466Z,61.17
2018-05-07T06:47:19.450Z,60.75
2018-05-07T06:48:19.444Z,61.55
2018-05-07T06:49:19.432Z,61.46
2018-05-07T06:50:19.426Z,60.98
2018-05-07T06:51:19.427Z,60.40
2018-05-07T06:52:19.415Z,60.69
2018-05-07T06:53:19.400Z,60.21
2018-05-07T06:54:19.409Z,60.53
2018-05-07T06:55:19.392Z,61.11
2018-05-07T06:56:19.413Z,60.34
2018-05-07T06:57:19.394Z,59.95
2018-05-07T06:58:19.368Z,61.11
2018-05-07T06:59:19.413Z,61.58
2018-05-07T07:00:19.368Z,61.30
2018-05-07T07:01:19.348Z,60.24
2018-05-07T07:02:19.390Z,60.05
2018-05-07T07:03:19.375Z,60.14
2018-05-07T07:04:19.342Z,59.86
2018-05-07T07:05:19.340Z,59.57
2018-05-07T07:06:19.328Z,60.27
2018-05-07T07:07:19.317Z,59.41
2018-05-07T07:08:19.423Z,59.69
2018-05-07T07:09:19.310Z,60.46
2018-05-07T07:10:19.301Z,60.85
2018-05-07T07:11:19.300Z,59.60
2018-05-07T07:12:19.275Z,60.08
2018-05-07T07:13:19.294Z,59.22
2018-05-07T07:14:19.291Z,59.02
2018-05-07T07:15:19.249Z,58.83
2018-05-07T07:16:19.263Z,58.83
2018-05-07T07:17:19.270Z,57.97
2018-05-07T07:18:19.226Z,58.83
2018-05-07T07:19:19.239Z,59.12
2018-05-07T07:20:19.233Z,58.64
2018-05-07T07:21:19.204Z,58.83
2018-05-07T07:22:19.281Z,58.35
2018-05-07T07:23:19.240Z,58.25
2018-05-07T07:24:19.207Z,58.73
2018-05-07T07:25:19.167Z,58.64
2018-05-07T07:26:19.153Z,58.28
2018-05-07T07:27:19.145Z,58.28
2018-05-07T07:28:19.240Z,57.99
2018-05-07T07:29:19.128Z,57.60
2018-05-07T07:30:19.248Z,57.42
2018-05-07T07:31:19.126Z,56.87
2018-05-07T07:32:19.154Z,57.45
2018-05-07T07:33:19.123Z,57.54
2018-05-07T07:34:19.103Z,56.96
2018-05-07T07:35:19.081Z,56.38
2018-05-07T07:36:19.055Z,56.20
2018-05-07T07:37:19.049Z,55.71
2018-05-07T07:38:19.039Z,55.71
2018-05-07T07:39:19.040Z,55.65
2018-05-07T07:40:19.042Z,55.26
2018-05-07T07:41:19.017Z,55.65
2018-05-07T07:42:19.021Z,56.41
2018-05-07T07:43:18.988Z,55.45
2018-05-07T07:44:19.007Z,56.03
2018-05-07T07:45:18.958Z,55.16
2018-05-07T07:46:18.955Z,55.48
2018-05-07T07:47:18.964Z,54.30
2018-05-07T07:48:18.923Z,54.20
2018-05-07T07:49:18.919Z,54.58
2018-05-07T07:50:18.932Z,55.65
2018-05-07T07:51:18.908Z,56.22
2018-05-07T07:52:18.875Z,55.45
2018-05-07T07:53:18.873Z,55.35
2018-05-07T07:54:18.853Z,54.80
2018-05-07T07:55:18.843Z,53.45
2018-05-07T07:56:18.829Z,54.90
2018-05-07T07:57:18.822Z,55.48
2018-05-07T07:58:18.807Z,53.55
2018-05-07T07:59:18.868Z,53.55
2018-05-07T08:00:18.805Z,53.55
2018-05-07T08:01:18.800Z,54.93
2018-05-07T08:02:18.781Z,54.52
2018-05-07T08:03:18.749Z,53.67
2018-05-07T08:04:18.862Z,53.19
2018-05-07T08:05:18.748Z,53.58
2018-05-07T08:06:18.713Z,54.25
2018-05-07T08:07:18.706Z,54.25
2018-05-07T08:08:18.697Z,53.58
2018-05-07T08:09:18.708Z,53.96
2018-05-07T08:10:18.667Z,53.19
2018-05-07T08:11:18.664Z,53.19
2018-05-07T08:12:18.734Z,53.48
2018-05-07T08:13:18.651Z,53.09
2018-05-07T08:14:18.642Z,53.51
2018-05-07T08:15:18.631Z,52.93
2018-05-07T08:16:18.613Z,53.03
2018-05-07T08:17:18.594Z,53.89
2018-05-07T08:18:18.572Z,53.31
2018-05-07T08:19:18.588Z,51.97
2018-05-07T08:20:18.571Z,52.35
2018-05-07T08:21:18.559Z,52.64
2018-05-07T08:22:18.540Z,51.39
2018-05-07T08:23:18.508Z,50.81
2018-05-07T08:24:18.518Z,51.00
2018-05-07T08:25:18.495Z,52.55
2018-05-07T08:26:18.496Z,52.45
2018-05-07T08:27:18.484Z,52.73
2018-05-07T08:28:18.454Z,52.64
2018-05-07T08:29:18.452Z,52.93
2018-05-07T08:30:18.433Z,52.64
2018-05-07T08:31:18.417Z,52.64
2018-05-07T08:32:18.406Z,51.51
2018-05-07T08:33:18.396Z,51.32
2018-05-07T08:34:18.398Z,51.32
2018-05-07T08:35:18.408Z,51.51
2018-05-07T08:36:18.367Z,51.32
2018-05-07T08:37:20.273Z,50.84
2018-05-07T08:38:18.344Z,50.64
2018-05-07T08:39:18.332Z,50.67
2018-05-07T08:40:18.313Z,50.96
2018-05-07T08:41:18.340Z,49.22
2018-05-07T08:42:18.334Z,50.09
2018-05-07T08:43:18.310Z,49.99
2018-05-07T08:44:18.287Z,50.67
2018-05-07T08:45:18.269Z,50.47
2018-05-07T08:46:18.252Z,51.05
2018-05-07T08:47:18.232Z,51.34
2018-05-07T08:48:18.257Z,51.05
2018-05-07T08:49:18.215Z,51.53
2018-05-07T08:50:18.201Z,51.05
2018-05-07T08:51:18.201Z,50.28
2018-05-07T08:52:18.182Z,50.28
2018-05-07T08:53:18.271Z,49.70
2018-05-07T08:54:18.169Z,50.38
2018-05-07T08:55:18.151Z,48.83
2018-05-07T08:56:18.134Z,49.12
2018-05-07T08:57:18.123Z,49.53
2018-05-07T08:58:18.127Z,50.11
2018-05-07T08:59:18.100Z,50.01
2018-05-07T09:00:18.117Z,49.51
2018-05-07T09:01:18.080Z,49.24
2018-05-07T09:02:18.113Z,49.53
2018-05-07T09:03:18.109Z,48.95
2018-05-07T09:04:18.067Z,49.05
2018-05-07T09:05:18.048Z,48.47
2018-05-07T09:06:18.041Z,48.95
2018-05-07T09:07:18.043Z,47.89
2018-05-07T09:08:18.010Z,47.99
2018-05-07T09:09:17.996Z,47.70
2018-05-07T09:10:18.048Z,48.08
2018-05-07T09:11:17.975Z,48.08
2018-05-07T09:12:17.999Z,48.76
2018-05-07T09:13:17.998Z,48.95
2018-05-07T09:14:17.942Z,49.15
2018-05-07T09:15:17.937Z,49.05
2018-05-07T09:16:17.938Z,48.76
2018-05-07T09:17:17.926Z,47.70
2018-05-07T09:18:17.909Z,46.83
2018-05-07T09:19:17.899Z,47.05
2018-05-07T09:20:17.887Z,47.80
2018-05-07T09:21:17.884Z,48.11
2018-05-07T09:22:17.849Z,47.99
2018-05-07T09:23:17.853Z,47.91
2018-05-07T09:24:17.832Z,47.24
2018-05-07T09:25:17.842Z,48.88
2018-05-07T09:26:17.810Z,47.53
2018-05-07T09:27:17.799Z,47.72
2018-05-07T09:28:17.793Z,47.81
2018-05-07T09:29:17.804Z,47.43
2018-05-07T09:30:17.768Z,47.91
2018-05-07T09:31:17.789Z,48.30
2018-05-07T09:32:17.760Z,47.74
2018-05-07T09:33:17.746Z,48.32
2018-05-07T09:34:17.720Z,47.74
2018-05-07T09:35:17.722Z,47.45
2018-05-07T09:36:17.719Z,47.74
2018-05-07T09:37:17.688Z,47.26
2018-05-07T09:38:17.676Z,46.78
2018-05-07T09:39:17.669Z,47.16
2018-05-07T09:40:17.736Z,47.65
2018-05-07T09:41:17.694Z,48.81
2018-05-07T09:42:17.648Z,47.84
2018-05-07T09:43:17.727Z,45.93
2018-05-07T09:44:17.633Z,45.54
2018-05-07T09:45:17.610Z,45.64
2018-05-07T09:46:17.594Z,45.45
2018-05-07T09:47:17.617Z,43.80
2018-05-07T09:48:17.715Z,42.83
2018-05-07T09:49:17.598Z,44.19
2018-05-07T09:50:17.572Z,44.19
2018-05-07T09:51:17.551Z,43.80
2018-05-07T09:52:17.552Z,41.58
2018-05-07T09:53:17.523Z,40.34
2018-05-07T09:54:17.527Z,40.90
2018-05-07T09:55:17.508Z,42.25
2018-05-07T09:56:17.567Z,40.61
2018-05-07T09:57:17.535Z,39.28
2018-05-07T09:58:17.502Z,40.92
2018-05-07T09:59:17.508Z,40.63
2018-05-07T10:00:17.467Z,40.44
2018-05-07T10:01:17.459Z,40.73
2018-05-07T10:02:17.454Z,40.63
2018-05-07T10:03:17.517Z,39.37
2018-05-07T10:04:17.430Z,39.57
2018-05-07T10:05:17.420Z,38.99
2018-05-07T10:06:17.392Z,38.99
2018-05-07T10:07:17.418Z,39.09
2018-05-07T10:08:17.403Z,39.18
2018-05-07T10:09:17.365Z,39.28
2018-05-07T10:10:17.370Z,37.73
2018-05-07T10:11:17.347Z,38.21
2018-05-07T10:12:17.333Z,37.54
2018-05-07T10:13:17.338Z,38.02
2018-05-07T10:14:17.345Z,37.73
2018-05-07T10:15:17.332Z,37.54
2018-05-07T10:16:17.410Z,36.28
2018-05-07T10:17:17.292Z,36.47
2018-05-07T10:18:17.327Z,36.28
2018-05-07T10:19:17.286Z,36.96
2018-05-07T10:20:17.252Z,37.34
2018-05-07T10:21:17.250Z,37.65
2018-05-07T10:22:17.232Z,37.73
2018-05-07T10:23:17.226Z,37.92
2018-05-07T10:24:17.351Z,37.82
2018-05-07T10:25:17.249Z,37.55
2018-05-07T10:26:17.206Z,37.46
2018-05-07T10:27:17.211Z,37.65
2018-05-07T10:28:17.199Z,37.94
2018-05-07T10:29:17.182Z,37.65
2018-05-07T10:30:17.156Z,37.55
2018-05-07T10:31:17.163Z,37.75
2018-05-07T10:32:17.154Z,37.75
2018-05-07T10:33:17.121Z,37.85
2018-05-07T10:34:17.115Z,38.23
2018-05-07T10:35:17.169Z,37.94
2018-05-07T10:36:17.104Z,37.85
2018-05-07T10:37:17.081Z,37.55
2018-05-07T10:38:17.100Z,37.87
2018-05-07T10:39:17.092Z,36.98
2018-05-07T10:40:17.057Z,36.51
2018-05-07T10:41:17.071Z,36.41
2018-05-07T10:42:17.033Z,36.58
2018-05-07T10:43:17.141Z,36.30
2018-05-07T10:44:17.033Z,36.78
2018-05-07T10:45:17.011Z,36.20
2018-05-07T10:46:16.995Z,37.09
2018-05-07T10:47:17.033Z,36.40
2018-05-07T10:48:17.012Z,35.83
2018-05-07T10:49:17.127Z,36.30
2018-05-07T10:50:16.985Z,35.64
2018-05-07T10:51:16.997Z,35.81
2018-05-07T10:52:16.956Z,35.81
2018-05-07T10:53:16.992Z,36.22
2018-05-07T10:54:16.953Z,36.90
2018-05-07T10:55:16.913Z,35.64
2018-05-07T10:56:17.016Z,36.60
2018-05-07T10:57:16.892Z,34.77
2018-05-07T10:58:16.901Z,35.15
2018-05-07T10:59:16.877Z,34.28
2018-05-07T11:00:16.886Z,34.96
2018-05-07T11:01:16.904Z,36.02
2018-05-07T11:02:16.843Z,35.93
2018-05-07T11:03:16.835Z,36.02
2018-05-07T11:04:16.828Z,35.35
2018-05-07T11:05:16.824Z,34.96
2018-05-07T11:06:16.812Z,35.54
2018-05-07T11:07:16.805Z,35.83
2018-05-07T11:08:16.816Z,36.70
2018-05-07T11:09:16.784Z,36.33
2018-05-07T11:10:16.778Z,36.24
2018-05-07T11:11:16.781Z,36.14
2018-05-07T11:12:16.757Z,37.79
2018-05-07T11:13:16.742Z,36.82
2018-05-07T11:14:16.759Z,35.66
2018-05-07T11:15:16.730Z,34.49
2018-05-07T11:16:16.742Z,34.59
2018-05-07T11:17:16.703Z,36.43
2018-05-07T11:18:16.700Z,36.32
2018-05-07T11:19:16.703Z,35.73
2018-05-07T11:20:16.682Z,36.91
2018-05-07T11:21:16.664Z,37.30
2018-05-07T11:22:16.659Z,37.79
2018-05-07T11:23:16.647Z,37.79
2018-05-07T11:24:16.638Z,38.17
2018-05-07T11:25:16.652Z,37.23
2018-05-07T11:26:16.682Z,37.32
2018-05-07T11:27:16.640Z,37.41
2018-05-07T11:28:16.607Z,36.93
2018-05-07T11:29:16.670Z,36.35
2018-05-07T11:30:16.582Z,34.80
2018-05-07T11:31:16.581Z,35.57
2018-05-07T11:32:16.573Z,35.38
2018-05-07T11:33:16.583Z,37.13
2018-05-07T11:34:16.675Z,36.54
2018-05-07T11:35:16.557Z,35.86
2018-05-07T11:36:16.542Z,35.67
2018-05-07T11:37:16.531Z,38.00
2018-05-07T11:38:16.555Z,36.66
2018-05-07T11:39:16.544Z,38.60
2018-05-07T11:40:16.903Z,35.38
2018-05-07T11:41:16.497Z,34.89
2018-05-07T11:42:16.483Z,36.06
2018-05-07T11:43:16.508Z,36.93
2018-05-07T11:44:16.477Z,34.99
2018-05-07T11:45:16.458Z,36.54
2018-05-07T11:46:16.447Z,35.77
2018-05-07T11:47:16.478Z,37.32
2018-05-07T11:48:16.463Z,37.41
2018-05-07T11:49:16.415Z,38.31
2018-05-07T11:50:16.418Z,37.24
2018-05-07T11:51:16.399Z,36.08
2018-05-07T11:52:16.948Z,36.46
2018-05-07T11:53:16.427Z,36.08
2018-05-07T11:54:16.391Z,35.11
2018-05-07T11:55:16.385Z,35.30
2018-05-07T11:56:16.396Z,35.19
2018-05-07T11:57:16.347Z,36.35
2018-05-07T11:58:16.652Z,35.19
2018-05-07T11:59:16.396Z,35.38
2018-05-07T12:00:16.327Z,36.54
2018-05-07T12:01:16.314Z,36.74
2018-05-07T12:02:16.423Z,36.93
2018-05-07T12:03:16.302Z,35.86
2018-05-07T12:04:16.389Z,36.16
2018-05-07T12:05:16.285Z,37.61
2018-05-07T12:06:16.302Z,36.95
2018-05-07T12:07:16.261Z,38.21
2018-05-07T12:08:16.249Z,36.95
2018-05-07T12:09:16.270Z,36.97
2018-05-07T12:10:16.248Z,37.55
2018-05-07T12:11:16.259Z,36.38
2018-05-07T12:12:16.217Z,36.97
2018-05-07T12:13:16.252Z,34.53
2018-05-07T12:14:16.213Z,34.33
2018-05-07T12:15:16.219Z,35.88
2018-05-07T12:16:16.194Z,37.15
2018-05-07T12:17:16.191Z,37.07
2018-05-07T12:18:16.167Z,35.61
2018-05-07T12:19:16.188Z,34.74
2018-05-07T12:20:16.178Z,34.85
2018-05-07T12:21:16.183Z,35.05
2018-05-07T12:22:16.183Z,34.36
2018-05-07T12:23:16.236Z,33.78
2018-05-07T12:24:16.121Z,33.88
2018-05-07T12:25:16.129Z,34.58
2018-05-07T12:26:16.103Z,34.48
2018-05-07T12:27:16.095Z,35.74
2018-05-07T12:28:16.103Z,34.67
2018-05-07T12:29:16.106Z,34.48
2018-05-07T12:30:16.125Z,32.54
2018-05-07T12:31:16.129Z,32.54
2018-05-07T12:32:16.151Z,34.38
2018-05-07T12:33:16.049Z,34.77
2018-05-07T12:34:16.039Z,34.88
2018-05-07T12:35:16.062Z,33.91
2018-05-07T12:36:16.018Z,32.84
2018-05-07T12:37:16.042Z,33.43
2018-05-07T12:38:16.009Z,34.40
2018-05-07T12:39:16.014Z,33.25
2018-05-07T12:40:16.013Z,33.83
2018-05-07T12:41:15.997Z,34.52
2018-05-07T12:42:15.985Z,34.70
2018-05-07T12:43:16.040Z,34.03
2018-05-07T12:44:15.967Z,33.93
2018-05-07T12:45:15.973Z,33.83
2018-05-07T12:46:15.945Z,34.70
2018-05-07T12:47:15.947Z,33.83
2018-05-07T12:48:15.941Z,33.26
2018-05-07T12:49:15.925Z,32.87
2018-05-07T12:50:15.911Z,31.71
2018-05-07T12:51:15.906Z,32.47
2018-05-07T12:52:15.899Z,32.96